sensor_id;sensor_type;location;lat;lon;timestamp;P1;durP1;ratioP1;P2;durP2;ratioP2
1020;SDS011;499;42.648;23.270;2023-04-23T00:00:57;1.27;;;1.00;;
1020;SDS011;499;42.648;23.270;2023-04-23T00:03:26;0.90;;;0.80;;
1020;SDS011;499;42.648;23.270;2023-04-23T00:05:57;0.90;;;0.80;;
1020;SDS011;499;42.648;23.270;2023-04-23T00:08:25;1.20;;;1.10;;
1020;SDS011;499;42.648;23.270;2023-04-23T00:10:54;1.73;;;1.57;;
1020;SDS011;499;42.648;23.270;2023-04-23T00:13:22;0.90;;;0.70;;
1020;SDS011;499;42.648;23.270;2023-04-23T00:15:49;1.30;;;0.83;;
1020;SDS011;499;42.648;23.270;2023-04-23T00:18:17;0.83;;;0.80;;
1020;SDS011;499;42.648;23.270;2023-04-23T00:20:44;1.57;;;1.37;;
1020;SDS011;499;42.648;23.270;2023-04-23T00:23:11;0.97;;;0.87;;
1020;SDS011;499;42.648;23.270;2023-04-23T00:25:38;1.00;;;0.90;;
1020;SDS011;499;42.648;23.270;2023-04-23T00:28:07;1.57;;;1.00;;
1020;SDS011;499;42.648;23.270;2023-04-23T00:30:34;0.80;;;0.80;;
1020;SDS011;499;42.648;23.270;2023-04-23T00:33:01;1.20;;;1.10;;
1020;SDS011;499;42.648;23.270;2023-04-23T00:35:28;0.90;;;0.80;;
1020;SDS011;499;42.648;23.270;2023-04-23T00:37:55;0.87;;;0.80;;
1020;SDS011;499;42.648;23.270;2023-04-23T00:40:22;1.10;;;1.00;;
1020;SDS011;499;42.648;23.270;2023-04-23T00:42:49;0.90;;;0.80;;
1020;SDS011;499;42.648;23.270;2023-04-23T00:45:19;0.80;;;0.80;;
1020;SDS011;499;42.648;23.270;2023-04-23T00:47:46;1.20;;;1.10;;
1020;SDS011;499;42.648;23.270;2023-04-23T00:50:14;1.00;;;1.00;;
1020;SDS011;499;42.648;23.270;2023-04-23T00:52:41;1.10;;;1.00;;
1020;SDS011;499;42.648;23.270;2023-04-23T00:55:08;1.47;;;1.37;;
1020;SDS011;499;42.648;23.270;2023-04-23T00:57:35;1.20;;;1.10;;
1020;SDS011;499;42.648;23.270;2023-04-23T01:00:04;1.30;;;1.20;;
1020;SDS011;499;42.648;23.270;2023-04-23T01:02:33;1.07;;;0.97;;
1020;SDS011;499;42.648;23.270;2023-04-23T01:05:02;1.50;;;0.80;;
1020;SDS011;499;42.648;23.270;2023-04-23T01:07:30;1.30;;;1.20;;
1020;SDS011;499;42.648;23.270;2023-04-23T01:10:00;1.00;;;0.90;;
1020;SDS011;499;42.648;23.270;2023-04-23T01:12:28;0.80;;;0.80;;
1020;SDS011;499;42.648;23.270;2023-04-23T01:14:55;1.00;;;0.90;;
1020;SDS011;499;42.648;23.270;2023-04-23T01:17:23;1.10;;;1.00;;
1020;SDS011;499;42.648;23.270;2023-04-23T01:19:52;0.80;;;0.80;;
1020;SDS011;499;42.648;23.270;2023-04-23T01:22:20;0.90;;;0.80;;
1020;SDS011;499;42.648;23.270;2023-04-23T01:24:47;1.23;;;1.13;;
1020;SDS011;499;42.648;23.270;2023-04-23T01:27:15;1.20;;;1.10;;
1020;SDS011;499;42.648;23.270;2023-04-23T01:29:44;1.10;;;1.00;;
1020;SDS011;499;42.648;23.270;2023-04-23T01:32:12;0.90;;;0.80;;
1020;SDS011;499;42.648;23.270;2023-04-23T01:34:40;1.03;;;0.93;;
1020;SDS011;499;42.648;23.270;2023-04-23T01:37:08;2.17;;;2.03;;
1020;SDS011;499;42.648;23.270;2023-04-23T01:39:37;1.10;;;1.00;;
1020;SDS011;499;42.648;23.270;2023-04-23T01:42:05;1.43;;;1.33;;
1020;SDS011;499;42.648;23.270;2023-04-23T01:44:32;1.97;;;1.87;;
1020;SDS011;499;42.648;23.270;2023-04-23T01:46:59;1.37;;;1.27;;
1020;SDS011;499;42.648;23.270;2023-04-23T01:49:26;3.03;;;1.90;;
1020;SDS011;499;42.648;23.270;2023-04-23T01:51:53;1.47;;;1.37;;
1020;SDS011;499;42.648;23.270;2023-04-23T01:54:20;1.10;;;1.00;;
1020;SDS011;499;42.648;23.270;2023-04-23T01:56:49;1.03;;;0.83;;
1020;SDS011;499;42.648;23.270;2023-04-23T01:59:19;1.13;;;1.03;;
1020;SDS011;499;42.648;23.270;2023-04-23T02:01:47;0.80;;;0.70;;
1020;SDS011;499;42.648;23.270;2023-04-23T02:04:15;0.90;;;0.80;;
1020;SDS011;499;42.648;23.270;2023-04-23T02:06:43;2.27;;;1.60;;
1020;SDS011;499;42.648;23.270;2023-04-23T02:09:12;0.80;;;0.80;;
1020;SDS011;499;42.648;23.270;2023-04-23T02:11:39;1.20;;;1.10;;
1020;SDS011;499;42.648;23.270;2023-04-23T02:14:08;1.00;;;0.90;;
1020;SDS011;499;42.648;23.270;2023-04-23T02:16:35;0.97;;;0.90;;
1020;SDS011;499;42.648;23.270;2023-04-23T02:19:02;1.00;;;0.90;;
1020;SDS011;499;42.648;23.270;2023-04-23T02:21:29;0.80;;;0.80;;
1020;SDS011;499;42.648;23.270;2023-04-23T02:23:57;0.80;;;0.80;;
1020;SDS011;499;42.648;23.270;2023-04-23T02:26:24;1.00;;;0.93;;
1020;SDS011;499;42.648;23.270;2023-04-23T02:28:51;0.80;;;0.70;;
1020;SDS011;499;42.648;23.270;2023-04-23T02:31:19;0.90;;;0.80;;
1020;SDS011;499;42.648;23.270;2023-04-23T02:33:46;0.90;;;0.90;;
1020;SDS011;499;42.648;23.270;2023-04-23T02:36:13;0.80;;;0.70;;
1020;SDS011;499;42.648;23.270;2023-04-23T02:38:41;0.90;;;0.90;;
1020;SDS011;499;42.648;23.270;2023-04-23T02:41:09;1.43;;;1.00;;
1020;SDS011;499;42.648;23.270;2023-04-23T02:43:36;0.80;;;0.80;;
1020;SDS011;499;42.648;23.270;2023-04-23T02:46:03;1.00;;;0.90;;
1020;SDS011;499;42.648;23.270;2023-04-23T02:48:35;1.30;;;0.90;;
1020;SDS011;499;42.648;23.270;2023-04-23T02:51:04;0.80;;;0.70;;
1020;SDS011;499;42.648;23.270;2023-04-23T02:53:32;0.90;;;0.90;;
1020;SDS011;499;42.648;23.270;2023-04-23T02:55:59;1.10;;;1.00;;
1020;SDS011;499;42.648;23.270;2023-04-23T02:58:27;1.20;;;1.10;;
1020;SDS011;499;42.648;23.270;2023-04-23T03:00:55;0.80;;;0.73;;
1020;SDS011;499;42.648;23.270;2023-04-23T03:03:24;1.73;;;1.20;;
1020;SDS011;499;42.648;23.270;2023-04-23T03:05:57;0.80;;;0.80;;
1020;SDS011;499;42.648;23.270;2023-04-23T03:08:25;1.77;;;1.67;;
1020;SDS011;499;42.648;23.270;2023-04-23T03:10:52;0.90;;;0.80;;
1020;SDS011;499;42.648;23.270;2023-04-23T03:13:19;0.80;;;0.80;;
1020;SDS011;499;42.648;23.270;2023-04-23T03:15:46;1.23;;;1.13;;
1020;SDS011;499;42.648;23.270;2023-04-23T03:18:14;1.00;;;0.87;;
1020;SDS011;499;42.648;23.270;2023-04-23T03:20:41;1.53;;;1.43;;
1020;SDS011;499;42.648;23.270;2023-04-23T03:23:09;0.90;;;0.90;;
1020;SDS011;499;42.648;23.270;2023-04-23T03:25:36;1.47;;;1.37;;
1020;SDS011;499;42.648;23.270;2023-04-23T03:28:04;1.17;;;1.07;;
1020;SDS011;499;42.648;23.270;2023-04-23T03:30:31;1.00;;;0.90;;
1020;SDS011;499;42.648;23.270;2023-04-23T03:32:58;1.10;;;1.00;;
1020;SDS011;499;42.648;23.270;2023-04-23T03:35:26;0.80;;;0.80;;
1020;SDS011;499;42.648;23.270;2023-04-23T03:37:53;1.30;;;1.20;;
1020;SDS011;499;42.648;23.270;2023-04-23T03:40:21;1.97;;;1.80;;
1020;SDS011;499;42.648;23.270;2023-04-23T03:42:48;0.90;;;0.90;;
1020;SDS011;499;42.648;23.270;2023-04-23T03:45:15;1.10;;;0.90;;
1020;SDS011;499;42.648;23.270;2023-04-23T03:47:43;1.40;;;1.30;;
1020;SDS011;499;42.648;23.270;2023-04-23T03:50:10;1.10;;;1.00;;
1020;SDS011;499;42.648;23.270;2023-04-23T03:52:38;0.80;;;0.80;;
1020;SDS011;499;42.648;23.270;2023-04-23T03:55:05;1.10;;;1.00;;
1020;SDS011;499;42.648;23.270;2023-04-23T03:57:34;1.00;;;0.90;;
1020;SDS011;499;42.648;23.270;2023-04-23T04:00:02;1.00;;;0.90;;
1020;SDS011;499;42.648;23.270;2023-04-23T04:02:32;0.83;;;0.83;;
1020;SDS011;499;42.648;23.270;2023-04-23T04:04:59;1.23;;;1.00;;
1020;SDS011;499;42.648;23.270;2023-04-23T04:07:27;1.30;;;1.20;;
1020;SDS011;499;42.648;23.270;2023-04-23T04:09:54;0.80;;;0.80;;
1020;SDS011;499;42.648;23.270;2023-04-23T04:12:21;1.13;;;1.03;;
1020;SDS011;499;42.648;23.270;2023-04-23T04:14:49;1.00;;;0.90;;
1020;SDS011;499;42.648;23.270;2023-04-23T04:17:16;1.03;;;0.90;;
1020;SDS011;499;42.648;23.270;2023-04-23T04:19:43;0.83;;;0.80;;
1020;SDS011;499;42.648;23.270;2023-04-23T04:22:10;1.27;;;1.17;;
1020;SDS011;499;42.648;23.270;2023-04-23T04:24:37;1.10;;;1.00;;
1020;SDS011;499;42.648;23.270;2023-04-23T04:27:06;0.80;;;0.67;;
1020;SDS011;499;42.648;23.270;2023-04-23T04:29:33;2.13;;;1.90;;
1020;SDS011;499;42.648;23.270;2023-04-23T04:32:01;1.00;;;0.90;;
1020;SDS011;499;42.648;23.270;2023-04-23T04:34:29;1.20;;;0.90;;
1020;SDS011;499;42.648;23.270;2023-04-23T04:36:56;0.90;;;0.80;;
1020;SDS011;499;42.648;23.270;2023-04-23T04:39:23;0.90;;;0.70;;
1020;SDS011;499;42.648;23.270;2023-04-23T04:41:50;1.00;;;0.83;;
1020;SDS011;499;42.648;23.270;2023-04-23T04:44:18;1.73;;;1.63;;
1020;SDS011;499;42.648;23.270;2023-04-23T04:46:45;1.37;;;1.27;;
1020;SDS011;499;42.648;23.270;2023-04-23T04:49:13;1.13;;;1.03;;
1020;SDS011;499;42.648;23.270;2023-04-23T04:51:43;1.10;;;1.00;;
1020;SDS011;499;42.648;23.270;2023-04-23T04:54:10;1.87;;;1.67;;
1020;SDS011;499;42.648;23.270;2023-04-23T04:56:37;2.23;;;1.70;;
1020;SDS011;499;42.648;23.270;2023-04-23T04:59:04;0.90;;;0.80;;
1020;SDS011;499;42.648;23.270;2023-04-23T05:01:31;0.80;;;0.80;;
1020;SDS011;499;42.648;23.270;2023-04-23T05:04:01;1.03;;;0.77;;
1020;SDS011;499;42.648;23.270;2023-04-23T05:06:29;1.57;;;1.47;;
1020;SDS011;499;42.648;23.270;2023-04-23T05:08:56;1.00;;;0.90;;
1020;SDS011;499;42.648;23.270;2023-04-23T05:11:23;2.23;;;1.10;;
1020;SDS011;499;42.648;23.270;2023-04-23T05:13:50;1.70;;;1.33;;
1020;SDS011;499;42.648;23.270;2023-04-23T05:16:17;1.47;;;1.37;;
1020;SDS011;499;42.648;23.270;2023-04-23T05:18:45;3.10;;;2.37;;
1020;SDS011;499;42.648;23.270;2023-04-23T05:21:12;2.50;;;2.30;;
1020;SDS011;499;42.648;23.270;2023-04-23T05:23:41;0.80;;;0.70;;
1020;SDS011;499;42.648;23.270;2023-04-23T05:26:08;1.20;;;1.10;;
1020;SDS011;499;42.648;23.270;2023-04-23T05:28:35;1.10;;;0.97;;
1020;SDS011;499;42.648;23.270;2023-04-23T05:31:02;0.80;;;0.70;;
1020;SDS011;499;42.648;23.270;2023-04-23T05:33:29;0.90;;;0.80;;
1020;SDS011;499;42.648;23.270;2023-04-23T05:35:57;1.00;;;0.70;;
1020;SDS011;499;42.648;23.270;2023-04-23T05:38:24;0.80;;;0.70;;
1020;SDS011;499;42.648;23.270;2023-04-23T05:40:52;3.27;;;2.10;;
1020;SDS011;499;42.648;23.270;2023-04-23T05:43:19;2.80;;;2.03;;
1020;SDS011;499;42.648;23.270;2023-04-23T05:45:46;3.10;;;2.80;;
1020;SDS011;499;42.648;23.270;2023-04-23T05:48:13;4.20;;;3.13;;
1020;SDS011;499;42.648;23.270;2023-04-23T05:50:40;1.10;;;0.80;;
1020;SDS011;499;42.648;23.270;2023-04-23T05:53:07;1.83;;;1.53;;
1020;SDS011;499;42.648;23.270;2023-04-23T05:55:34;3.70;;;2.53;;
1020;SDS011;499;42.648;23.270;2023-04-23T05:58:03;3.03;;;2.20;;
1020;SDS011;499;42.648;23.270;2023-04-23T06:00:30;3.30;;;2.33;;
1020;SDS011;499;42.648;23.270;2023-04-23T06:02:59;4.37;;;3.47;;
1020;SDS011;499;42.648;23.270;2023-04-23T06:05:26;3.10;;;2.70;;
1020;SDS011;499;42.648;23.270;2023-04-23T06:07:53;3.27;;;2.20;;
1020;SDS011;499;42.648;23.270;2023-04-23T06:10:20;3.57;;;2.37;;
1020;SDS011;499;42.648;23.270;2023-04-23T06:12:47;4.17;;;2.80;;
1020;SDS011;499;42.648;23.270;2023-04-23T06:15:16;4.53;;;3.20;;
1020;SDS011;499;42.648;23.270;2023-04-23T06:17:43;3.87;;;2.73;;
1020;SDS011;499;42.648;23.270;2023-04-23T06:20:10;3.33;;;2.33;;
1020;SDS011;499;42.648;23.270;2023-04-23T06:22:37;3.30;;;3.00;;
1020;SDS011;499;42.648;23.270;2023-04-23T06:25:04;3.37;;;3.07;;
1020;SDS011;499;42.648;23.270;2023-04-23T06:27:32;3.90;;;3.03;;
1020;SDS011;499;42.648;23.270;2023-04-23T06:29:59;3.87;;;2.83;;
1020;SDS011;499;42.648;23.270;2023-04-23T06:32:27;3.33;;;3.03;;
1020;SDS011;499;42.648;23.270;2023-04-23T06:34:54;2.80;;;2.60;;
1020;SDS011;499;42.648;23.270;2023-04-23T06:37:21;3.93;;;3.63;;
1020;SDS011;499;42.648;23.270;2023-04-23T06:39:50;2.87;;;2.20;;
1020;SDS011;499;42.648;23.270;2023-04-23T06:42:17;4.43;;;3.50;;
1020;SDS011;499;42.648;23.270;2023-04-23T06:44:44;2.60;;;2.20;;
1020;SDS011;499;42.648;23.270;2023-04-23T06:47:12;3.40;;;2.50;;
1020;SDS011;499;42.648;23.270;2023-04-23T06:49:41;3.87;;;2.93;;
1020;SDS011;499;42.648;23.270;2023-04-23T06:52:08;3.73;;;2.10;;
1020;SDS011;499;42.648;23.270;2023-04-23T06:54:35;3.67;;;2.73;;
1020;SDS011;499;42.648;23.270;2023-04-23T06:57:02;3.07;;;2.60;;
1020;SDS011;499;42.648;23.270;2023-04-23T06:59:29;4.90;;;3.40;;
1020;SDS011;499;42.648;23.270;2023-04-23T07:01:56;3.03;;;2.60;;
1020;SDS011;499;42.648;23.270;2023-04-23T07:04:23;3.73;;;3.33;;
1020;SDS011;499;42.648;23.270;2023-04-23T07:06:52;2.00;;;1.80;;
1020;SDS011;499;42.648;23.270;2023-04-23T07:09:19;2.90;;;2.40;;
1020;SDS011;499;42.648;23.270;2023-04-23T07:11:47;3.07;;;2.77;;
1020;SDS011;499;42.648;23.270;2023-04-23T07:14:14;3.57;;;2.77;;
1020;SDS011;499;42.648;23.270;2023-04-23T07:16:41;3.33;;;2.57;;
1020;SDS011;499;42.648;23.270;2023-04-23T07:19:08;2.90;;;2.60;;
1020;SDS011;499;42.648;23.270;2023-04-23T07:21:35;2.73;;;2.53;;
1020;SDS011;499;42.648;23.270;2023-04-23T07:24:03;3.90;;;3.60;;
1020;SDS011;499;42.648;23.270;2023-04-23T07:26:31;4.57;;;3.70;;
1020;SDS011;499;42.648;23.270;2023-04-23T07:28:58;3.63;;;2.43;;
1020;SDS011;499;42.648;23.270;2023-04-23T07:31:26;4.60;;;3.10;;
1020;SDS011;499;42.648;23.270;2023-04-23T07:33:53;3.30;;;3.00;;
1020;SDS011;499;42.648;23.270;2023-04-23T07:36:20;3.80;;;2.93;;
1020;SDS011;499;42.648;23.270;2023-04-23T07:38:47;4.07;;;2.80;;
1020;SDS011;499;42.648;23.270;2023-04-23T07:41:16;3.60;;;2.43;;
1020;SDS011;499;42.648;23.270;2023-04-23T07:43:43;2.67;;;2.20;;
1020;SDS011;499;42.648;23.270;2023-04-23T07:46:10;3.73;;;2.83;;
1020;SDS011;499;42.648;23.270;2023-04-23T07:48:37;3.10;;;2.63;;
1020;SDS011;499;42.648;23.270;2023-04-23T07:51:04;3.40;;;2.70;;
1020;SDS011;499;42.648;23.270;2023-04-23T07:53:32;3.70;;;3.10;;
1020;SDS011;499;42.648;23.270;2023-04-23T07:55:59;5.13;;;1.73;;
1020;SDS011;499;42.648;23.270;2023-04-23T07:58:28;3.53;;;2.00;;
1020;SDS011;499;42.648;23.270;2023-04-23T08:00:57;3.20;;;2.40;;
1020;SDS011;499;42.648;23.270;2023-04-23T08:03:24;3.47;;;3.17;;
1020;SDS011;499;42.648;23.270;2023-04-23T08:05:51;3.47;;;2.70;;
1020;SDS011;499;42.648;23.270;2023-04-23T08:08:18;3.33;;;1.93;;
1020;SDS011;499;42.648;23.270;2023-04-23T08:10:45;4.53;;;2.63;;
1020;SDS011;499;42.648;23.270;2023-04-23T08:13:12;4.27;;;2.63;;
1020;SDS011;499;42.648;23.270;2023-04-23T08:15:41;3.80;;;2.63;;
1020;SDS011;499;42.648;23.270;2023-04-23T08:18:08;3.33;;;3.03;;
1020;SDS011;499;42.648;23.270;2023-04-23T08:20:35;2.10;;;1.90;;
1020;SDS011;499;42.648;23.270;2023-04-23T08:23:02;2.77;;;2.40;;
1020;SDS011;499;42.648;23.270;2023-04-23T08:25:29;3.10;;;2.60;;
1020;SDS011;499;42.648;23.270;2023-04-23T08:27:56;1.90;;;1.67;;
1020;SDS011;499;42.648;23.270;2023-04-23T08:30:23;2.73;;;2.53;;
1020;SDS011;499;42.648;23.270;2023-04-23T08:32:52;2.83;;;2.47;;
1020;SDS011;499;42.648;23.270;2023-04-23T08:35:19;3.00;;;2.23;;
1020;SDS011;499;42.648;23.270;2023-04-23T08:37:47;3.33;;;2.40;;
1020;SDS011;499;42.648;23.270;2023-04-23T08:40:14;3.10;;;2.20;;
1020;SDS011;499;42.648;23.270;2023-04-23T08:42:42;3.47;;;2.73;;
1020;SDS011;499;42.648;23.270;2023-04-23T08:45:14;3.13;;;2.30;;
1020;SDS011;499;42.648;23.270;2023-04-23T08:47:41;6.77;;;2.67;;
1020;SDS011;499;42.648;23.270;2023-04-23T08:50:10;2.30;;;2.10;;
1020;SDS011;499;42.648;23.270;2023-04-23T08:52:39;2.83;;;2.03;;
1020;SDS011;499;42.648;23.270;2023-04-23T08:55:07;2.83;;;2.03;;
1020;SDS011;499;42.648;23.270;2023-04-23T08:57:36;3.40;;;2.47;;
1020;SDS011;499;42.648;23.270;2023-04-23T09:00:05;3.10;;;2.40;;
1020;SDS011;499;42.648;23.270;2023-04-23T09:02:34;2.90;;;2.17;;
1020;SDS011;499;42.648;23.270;2023-04-23T09:05:02;2.90;;;2.03;;
1020;SDS011;499;42.648;23.270;2023-04-23T09:07:30;3.43;;;2.53;;
1020;SDS011;499;42.648;23.270;2023-04-23T09:09:59;3.03;;;1.90;;
1020;SDS011;499;42.648;23.270;2023-04-23T09:12:26;2.77;;;2.50;;
1020;SDS011;499;42.648;23.270;2023-04-23T09:14:54;2.63;;;2.43;;
1020;SDS011;499;42.648;23.270;2023-04-23T09:17:21;2.53;;;1.83;;
1020;SDS011;499;42.648;23.270;2023-04-23T09:19:49;3.20;;;2.20;;
1020;SDS011;499;42.648;23.270;2023-04-23T09:25:08;2.20;;;1.60;;
1020;SDS011;499;42.648;23.270;2023-04-23T09:27:36;2.40;;;1.90;;
1020;SDS011;499;42.648;23.270;2023-04-23T09:30:06;2.90;;;1.93;;
1020;SDS011;499;42.648;23.270;2023-04-23T09:32:35;2.23;;;1.47;;
1020;SDS011;499;42.648;23.270;2023-04-23T09:35:06;4.40;;;2.63;;
1020;SDS011;499;42.648;23.270;2023-04-23T09:37:34;2.50;;;1.77;;
1020;SDS011;499;42.648;23.270;2023-04-23T09:40:04;2.40;;;1.53;;
1020;SDS011;499;42.648;23.270;2023-04-23T09:42:33;2.60;;;2.40;;
1020;SDS011;499;42.648;23.270;2023-04-23T09:45:02;3.20;;;1.70;;
1020;SDS011;499;42.648;23.270;2023-04-23T09:47:31;3.17;;;2.47;;
1020;SDS011;499;42.648;23.270;2023-04-23T09:49:59;2.50;;;2.30;;
1020;SDS011;499;42.648;23.270;2023-04-23T09:52:27;2.50;;;2.30;;
1020;SDS011;499;42.648;23.270;2023-04-23T09:55:00;2.43;;;1.97;;
1020;SDS011;499;42.648;23.270;2023-04-23T09:57:31;3.83;;;2.83;;
1020;SDS011;499;42.648;23.270;2023-04-23T10:00:11;3.40;;;2.67;;
1020;SDS011;499;42.648;23.270;2023-04-23T10:02:44;2.87;;;2.03;;
1020;SDS011;499;42.648;23.270;2023-04-23T10:05:13;3.10;;;2.37;;
1020;SDS011;499;42.648;23.270;2023-04-23T10:07:41;1.90;;;1.40;;
1020;SDS011;499;42.648;23.270;2023-04-23T10:10:10;3.30;;;2.30;;
1020;SDS011;499;42.648;23.270;2023-04-23T10:12:39;3.67;;;3.37;;
1020;SDS011;499;42.648;23.270;2023-04-23T10:15:08;2.63;;;1.70;;
1020;SDS011;499;42.648;23.270;2023-04-23T10:17:36;2.03;;;1.83;;
1020;SDS011;499;42.648;23.270;2023-04-23T10:20:04;2.30;;;2.10;;
1020;SDS011;499;42.648;23.270;2023-04-23T10:22:33;3.00;;;2.27;;
1020;SDS011;499;42.648;23.270;2023-04-23T10:25:02;3.23;;;2.30;;
1020;SDS011;499;42.648;23.270;2023-04-23T10:27:33;3.10;;;2.20;;
1020;SDS011;499;42.648;23.270;2023-04-23T10:30:05;1.90;;;1.47;;
1020;SDS011;499;42.648;23.270;2023-04-23T10:32:34;4.13;;;2.47;;
1020;SDS011;499;42.648;23.270;2023-04-23T10:35:02;3.20;;;2.90;;
1020;SDS011;499;42.648;23.270;2023-04-23T10:37:29;2.40;;;2.03;;
1020;SDS011;499;42.648;23.270;2023-04-23T10:40:03;3.57;;;2.47;;
1020;SDS011;499;42.648;23.270;2023-04-23T10:42:35;2.37;;;1.93;;
1020;SDS011;499;42.648;23.270;2023-04-23T10:45:10;6.87;;;3.80;;
1020;SDS011;499;42.648;23.270;2023-04-23T10:47:40;3.03;;;1.60;;
1020;SDS011;499;42.648;23.270;2023-04-23T10:50:18;3.17;;;1.60;;
1020;SDS011;499;42.648;23.270;2023-04-23T10:52:50;2.67;;;1.97;;
1020;SDS011;499;42.648;23.270;2023-04-23T10:55:18;3.10;;;2.77;;
1020;SDS011;499;42.648;23.270;2023-04-23T10:57:56;3.00;;;2.10;;
1020;SDS011;499;42.648;23.270;2023-04-23T11:00:26;2.90;;;1.90;;
1020;SDS011;499;42.648;23.270;2023-04-23T11:02:54;3.93;;;2.47;;
1020;SDS011;499;42.648;23.270;2023-04-23T11:05:21;2.30;;;1.80;;
1020;SDS011;499;42.648;23.270;2023-04-23T11:08:03;1.63;;;1.43;;
1020;SDS011;499;42.648;23.270;2023-04-23T11:10:31;2.57;;;2.17;;
1020;SDS011;499;42.648;23.270;2023-04-23T11:15:49;2.57;;;1.97;;
1020;SDS011;499;42.648;23.270;2023-04-23T11:18:55;2.80;;;1.90;;
1020;SDS011;499;42.648;23.270;2023-04-23T11:21:34;2.00;;;1.50;;
1020;SDS011;499;42.648;23.270;2023-04-23T11:24:22;3.43;;;2.70;;
1020;SDS011;499;42.648;23.270;2023-04-23T11:26:49;2.73;;;2.17;;
1020;SDS011;499;42.648;23.270;2023-04-23T11:29:17;2.13;;;1.87;;
1020;SDS011;499;42.648;23.270;2023-04-23T11:31:48;1.77;;;1.37;;
1020;SDS011;499;42.648;23.270;2023-04-23T11:34:15;3.33;;;2.13;;
1020;SDS011;499;42.648;23.270;2023-04-23T11:36:42;2.07;;;1.70;;
1020;SDS011;499;42.648;23.270;2023-04-23T11:39:10;3.13;;;1.77;;
1020;SDS011;499;42.648;23.270;2023-04-23T11:41:37;2.20;;;1.53;;
1020;SDS011;499;42.648;23.270;2023-04-23T11:44:06;2.87;;;1.70;;
1020;SDS011;499;42.648;23.270;2023-04-23T11:46:33;1.50;;;1.30;;
1020;SDS011;499;42.648;23.270;2023-04-23T11:49:03;2.20;;;1.67;;
1020;SDS011;499;42.648;23.270;2023-04-23T11:51:33;2.40;;;1.40;;
1020;SDS011;499;42.648;23.270;2023-04-23T11:54:02;2.53;;;1.63;;
1020;SDS011;499;42.648;23.270;2023-04-23T11:56:30;2.77;;;2.00;;
1020;SDS011;499;42.648;23.270;2023-04-23T11:58:57;2.73;;;1.77;;
1020;SDS011;499;42.648;23.270;2023-04-23T12:01:25;2.53;;;1.50;;
1020;SDS011;499;42.648;23.270;2023-04-23T12:03:52;2.53;;;1.50;;
1020;SDS011;499;42.648;23.270;2023-04-23T12:06:20;2.43;;;1.83;;
1020;SDS011;499;42.648;23.270;2023-04-23T12:08:48;3.00;;;1.00;;
1020;SDS011;499;42.648;23.270;2023-04-23T12:11:15;2.83;;;2.20;;
1020;SDS011;499;42.648;23.270;2023-04-23T12:13:42;4.83;;;2.73;;
1020;SDS011;499;42.648;23.270;2023-04-23T12:16:10;1.97;;;1.40;;
1020;SDS011;499;42.648;23.270;2023-04-23T12:18:38;1.87;;;1.40;;
1020;SDS011;499;42.648;23.270;2023-04-23T12:21:09;2.20;;;1.90;;
1020;SDS011;499;42.648;23.270;2023-04-23T12:23:38;1.97;;;1.77;;
1020;SDS011;499;42.648;23.270;2023-04-23T12:26:09;4.03;;;1.97;;
1020;SDS011;499;42.648;23.270;2023-04-23T12:28:44;2.37;;;1.70;;
1020;SDS011;499;42.648;23.270;2023-04-23T12:31:17;1.97;;;1.13;;
1020;SDS011;499;42.648;23.270;2023-04-23T12:33:45;1.33;;;0.87;;
1020;SDS011;499;42.648;23.270;2023-04-23T12:36:13;2.03;;;1.10;;
1020;SDS011;499;42.648;23.270;2023-04-23T12:38:42;1.77;;;1.20;;
1020;SDS011;499;42.648;23.270;2023-04-23T12:41:10;4.23;;;2.37;;
1020;SDS011;499;42.648;23.270;2023-04-23T12:43:37;2.20;;;1.63;;
1020;SDS011;499;42.648;23.270;2023-04-23T12:46:04;2.80;;;2.10;;
1020;SDS011;499;42.648;23.270;2023-04-23T12:48:31;1.53;;;1.27;;
1020;SDS011;499;42.648;23.270;2023-04-23T12:50:58;1.70;;;1.20;;
1020;SDS011;499;42.648;23.270;2023-04-23T12:53:29;2.60;;;1.73;;
1020;SDS011;499;42.648;23.270;2023-04-23T12:55:57;2.90;;;0.87;;
1020;SDS011;499;42.648;23.270;2023-04-23T12:58:24;1.80;;;1.33;;
1020;SDS011;499;42.648;23.270;2023-04-23T13:00:52;3.53;;;2.50;;
1020;SDS011;499;42.648;23.270;2023-04-23T13:03:19;1.67;;;1.40;;
1020;SDS011;499;42.648;23.270;2023-04-23T13:05:46;1.90;;;1.23;;
1020;SDS011;499;42.648;23.270;2023-04-23T13:08:14;1.57;;;1.10;;
1020;SDS011;499;42.648;23.270;2023-04-23T13:10:43;1.40;;;0.97;;
1020;SDS011;499;42.648;23.270;2023-04-23T13:13:12;3.20;;;1.50;;
1020;SDS011;499;42.648;23.270;2023-04-23T13:15:39;1.93;;;1.17;;
1020;SDS011;499;42.648;23.270;2023-04-23T13:18:07;1.47;;;1.13;;
1020;SDS011;499;42.648;23.270;2023-04-23T13:20:34;1.50;;;0.90;;
1020;SDS011;499;42.648;23.270;2023-04-23T13:23:01;2.60;;;1.13;;
1020;SDS011;499;42.648;23.270;2023-04-23T13:25:28;2.27;;;1.73;;
1020;SDS011;499;42.648;23.270;2023-04-23T13:28:01;1.43;;;1.00;;
1020;SDS011;499;42.648;23.270;2023-04-23T13:30:30;8.60;;;3.40;;
1020;SDS011;499;42.648;23.270;2023-04-23T13:32:57;2.17;;;1.23;;
1020;SDS011;499;42.648;23.270;2023-04-23T13:35:24;1.87;;;1.10;;
1020;SDS011;499;42.648;23.270;2023-04-23T13:37:51;2.03;;;1.50;;
1020;SDS011;499;42.648;23.270;2023-04-23T13:40:19;2.37;;;1.43;;
1020;SDS011;499;42.648;23.270;2023-04-23T13:42:49;1.80;;;1.30;;
1020;SDS011;499;42.648;23.270;2023-04-23T13:45:19;1.63;;;1.00;;
1020;SDS011;499;42.648;23.270;2023-04-23T13:47:48;1.77;;;1.30;;
1020;SDS011;499;42.648;23.270;2023-04-23T13:50:15;1.57;;;1.33;;
1020;SDS011;499;42.648;23.270;2023-04-23T13:52:42;1.97;;;1.40;;
1020;SDS011;499;42.648;23.270;2023-04-23T13:55:09;1.67;;;1.00;;
1020;SDS011;499;42.648;23.270;2023-04-23T13:57:36;1.73;;;1.17;;
1020;SDS011;499;42.648;23.270;2023-04-23T14:00:03;2.30;;;1.30;;
1020;SDS011;499;42.648;23.270;2023-04-23T14:02:31;1.60;;;1.13;;
1020;SDS011;499;42.648;23.270;2023-04-23T14:04:59;3.40;;;1.90;;
1020;SDS011;499;42.648;23.270;2023-04-23T14:07:27;1.60;;;0.97;;
1020;SDS011;499;42.648;23.270;2023-04-23T14:09:54;2.10;;;1.33;;
1020;SDS011;499;42.648;23.270;2023-04-23T14:12:21;2.33;;;1.87;;
1020;SDS011;499;42.648;23.270;2023-04-23T14:14:50;1.90;;;1.60;;
1020;SDS011;499;42.648;23.270;2023-04-23T14:17:17;1.90;;;1.37;;
1020;SDS011;499;42.648;23.270;2023-04-23T14:19:44;1.87;;;1.27;;
1020;SDS011;499;42.648;23.270;2023-04-23T14:22:13;1.50;;;1.17;;
1020;SDS011;499;42.648;23.270;2023-04-23T14:24:43;1.60;;;1.17;;
1020;SDS011;499;42.648;23.270;2023-04-23T14:27:12;1.70;;;0.90;;
1020;SDS011;499;42.648;23.270;2023-04-23T14:29:39;2.00;;;1.17;;
1020;SDS011;499;42.648;23.270;2023-04-23T14:32:10;3.03;;;1.93;;
1020;SDS011;499;42.648;23.270;2023-04-23T14:34:38;2.80;;;1.60;;
1020;SDS011;499;42.648;23.270;2023-04-23T14:37:05;4.03;;;2.23;;
1020;SDS011;499;42.648;23.270;2023-04-23T14:39:34;2.87;;;1.47;;
1020;SDS011;499;42.648;23.270;2023-04-23T14:42:01;2.73;;;2.00;;
1020;SDS011;499;42.648;23.270;2023-04-23T14:44:28;1.97;;;1.57;;
1020;SDS011;499;42.648;23.270;2023-04-23T14:46:55;2.47;;;1.83;;
1020;SDS011;499;42.648;23.270;2023-04-23T14:49:22;1.67;;;1.30;;
1020;SDS011;499;42.648;23.270;2023-04-23T14:51:49;2.07;;;1.33;;
1020;SDS011;499;42.648;23.270;2023-04-23T14:54:18;2.40;;;1.60;;
1020;SDS011;499;42.648;23.270;2023-04-23T14:56:47;2.20;;;1.10;;
1020;SDS011;499;42.648;23.270;2023-04-23T14:59:14;1.73;;;1.37;;
1020;SDS011;499;42.648;23.270;2023-04-23T15:01:41;1.63;;;1.33;;
1020;SDS011;499;42.648;23.270;2023-04-23T15:04:08;1.83;;;1.00;;
1020;SDS011;499;42.648;23.270;2023-04-23T15:06:35;1.80;;;1.43;;
1020;SDS011;499;42.648;23.270;2023-04-23T15:09:04;1.70;;;1.30;;
1020;SDS011;499;42.648;23.270;2023-04-23T15:11:31;1.53;;;1.20;;
1020;SDS011;499;42.648;23.270;2023-04-23T15:14:01;2.07;;;1.50;;
1020;SDS011;499;42.648;23.270;2023-04-23T15:16:33;1.43;;;1.03;;
1020;SDS011;499;42.648;23.270;2023-04-23T15:19:02;2.37;;;1.50;;
1020;SDS011;499;42.648;23.270;2023-04-23T15:21:30;2.63;;;1.70;;
1020;SDS011;499;42.648;23.270;2023-04-23T15:23:57;1.60;;;1.20;;
1020;SDS011;499;42.648;23.270;2023-04-23T15:26:24;3.33;;;1.70;;